Huvudsida
METAR-TAF:

METAR-TAF

Flygplatser :

Sogndals flygplats. Haukåsen

Sogndals, Norge

latitud: 61-09N, longitud: 007-08E, höjd: 49 m

Aktuellt väderrapport

Denna rapport gjordes för 37 minuter sedan, klockan 18:20 UTC
Vind 9 kt från sydväst
Temperatur 1°C
Fuktighet 93%
Tryck 1003 hPa
Sikt: 8000 m
lätta snöbyar, regn

METAR: ENSG 231820Z 23009KT 8000 -SHSNRA VV014 01/00 Q1003 RMK WIND 3806FT 29030KT

Tid: 20:57 (18:57 UTC)


TAF: saknas

Aktuella väderrapporter och prognoser från 4000 flygplatser (METAR- och TAF-rapporter).

De tillgängliga stationerna syns som gula och röda prickar på kartan.

För musen över prickarna för att se namnen på stationerna.

Klicka sedan för att få väderrapporter och prognoser.

För att ändra kartan: Klicka på de gröna knapparna med ett svart kors på för att zooma in; den gröna knappen med ett streck på för att zooma ut; eller på de gröna pilarna för angränsande kartor.


METAR-TAF: